Time;durP1;ratioP1;P1;durP2;ratioP2;P2;SDS_P1;SDS_P2;PMS_P1;PMS_P2;Temp;Humidity;BMP_temperature;BMP_pressure;BME280_temperature;BME280_humidity;BME280_pressure;Samples;Min_cycle;Max_cycle;Signal;HPM_P1;HPM_P2
2023/05/26 00:00:32;;;;;;;1.48;0.63;;;;;;;13.06;60.88;102131.75;15647781;28;20238;-46
2023/05/26 00:08:07;;;;;;;1.20;1.10;;;;;;;12.79;61.33;102116.34;15646009;28;20029;-55
2023/05/26 00:15:40;;;;;;;5.25;1.58;;;;;;;12.73;61.35;102121.47;15669003;28;20213;-47
2023/05/26 00:23:14;;;;;;;1.50;0.50;;;;;;;12.57;62.07;102131.63;15675294;28;20151;-47
2023/05/26 00:30:47;;;;;;;2.97;1.50;;;;;;;12.39;62.45;102126.63;15679760;28;20048;-48
2023/05/26 00:38:21;;;;;;;1.50;1.00;;;;;;;12.18;62.93;102124.72;15663928;28;20041;-46
2023/05/26 00:45:54;;;;;;;1.05;0.75;;;;;;;11.98;63.30;102132.50;15658970;28;20124;-48
2023/05/26 00:53:28;;;;;;;1.03;0.60;;;;;;;11.92;63.25;102139.47;15676676;28;20045;-47
2023/05/26 01:01:01;;;;;;;4.30;1.55;;;;;;;11.45;63.52;102131.66;15654968;28;20048;-47
2023/05/26 01:08:36;;;;;;;0.95;0.80;;;;;;;11.29;64.11;102145.25;15655168;28;20044;-49
2023/05/26 01:16:12;;;;;;;1.83;0.55;;;;;;;11.02;64.58;102133.19;15655989;28;20076;-50
2023/05/26 01:24:12;;;;;;;1.65;1.10;;;;;;;10.89;65.18;102131.94;15649416;28;20099;-46
2023/05/26 01:31:48;;;;;;;0.90;0.52;;;;;;;10.79;65.10;102133.19;15656276;28;20485;-48
2023/05/26 01:39:20;;;;;;;1.25;1.00;;;;;;;10.54;65.28;102144.06;15658998;28;20562;-48
2023/05/26 01:46:54;;;;;;;1.03;0.93;;;;;;;10.38;65.32;102144.13;15653131;28;20045;-51
2023/05/26 01:54:34;;;;;;;0.77;0.63;;;;;;;10.23;65.52;102136.78;15652967;28;20052;-51
2023/05/26 02:02:08;;;;;;;1.67;1.25;;;;;;;10.01;65.91;102132.16;15649696;28;20040;-51
2023/05/26 02:09:44;;;;;;;3.05;1.13;;;;;;;9.97;65.52;102136.19;15649136;28;20328;-50
2023/05/26 02:17:21;;;;;;;1.42;1.05;;;;;;;9.81;66.04;102152.34;15673296;28;20060;-50
2023/05/26 02:24:53;;;;;;;0.82;0.45;;;;;;;9.73;65.88;102168.44;15660577;28;20395;-50
2023/05/26 02:32:43;;;;;;;1.60;0.50;;;;;;;9.64;65.86;102163.06;15638378;28;20048;-46
2023/05/26 02:40:36;;;;;;;2.88;1.40;;;;;;;9.48;65.77;102156.91;15640273;28;20040;-46
2023/05/26 02:48:11;;;;;;;2.00;1.17;;;;;;;9.32;66.71;102165.75;15651583;28;20541;-48
2023/05/26 02:55:44;;;;;;;2.78;1.52;;;;;;;9.31;66.01;102175.63;15652630;28;20434;-56
2023/05/26 03:03:18;;;;;;;6.10;1.63;;;;;;;8.88;66.05;102133.91;15665587;22;20114;-84
2023/05/26 03:10:51;;;;;;;1.85;1.00;;;;;;;8.97;67.40;102174.94;15683407;28;20030;-84
2023/05/26 03:18:26;;;;;;;6.93;1.80;;;;;;;9.05;66.91;102181.16;15707295;28;20059;-83
2023/05/26 03:26:01;;;;;;;1.30;0.90;;;;;;;8.88;67.69;102179.44;15668937;28;20102;-84
2023/05/26 03:33:40;;;;;;;1.15;0.93;;;;;;;8.71;67.44;102148.25;15644058;28;20671;-84
2023/05/26 03:41:16;;;;;;;1.48;0.73;;;;;;;8.77;68.44;102195.81;15670930;28;20045;-83
2023/05/26 03:49:00;;;;;;;2.75;0.68;;;;;;;9.12;68.82;102198.22;15674328;28;20067;-83
2023/05/26 03:56:33;;;;;;;2.72;1.88;;;;;;;8.87;69.65;102162.53;15671959;28;20056;-84
2023/05/26 04:04:08;;;;;;;3.90;1.75;;;;;;;9.56;68.74;102208.66;15674337;28;20410;-84
2023/05/26 04:11:41;;;;;;;4.00;1.67;;;;;;;9.57;69.41;102209.50;15664942;28;20068;-84
2023/05/26 04:19:17;;;;;;;2.97;1.75;;;;;;;9.89;69.10;102220.22;15647497;28;20041;-83
2023/05/26 04:26:52;;;;;;;5.40;0.75;;;;;;;9.76;68.86;102166.25;15641506;28;20068;-83
2023/05/26 04:34:47;;;;;;;2.20;1.10;;;;;;;10.37;68.92;102220.31;15672277;28;20049;-83
2023/05/26 04:42:23;;;;;;;5.60;1.27;;;;;;;10.78;67.17;102225.53;15653073;28;20037;-83
2023/05/26 04:49:57;;;;;;;;;;;;;;;11.27;66.09;102222.53;15676664;28;20108;-82
2023/05/26 04:57:55;;;;;;;4.80;1.65;;;;;;;10.71;67.10;102159.06;15648874;28;19920;-84
2023/05/26 05:05:41;;;;;;;2.83;1.15;;;;;;;11.18;64.93;102135.75;15642550;28;20055;-84
2023/05/26 05:13:28;;;;;;;13.68;2.10;;;;;;;11.36;64.40;102120.16;15652484;28;20049;-83
2023/05/26 05:21:13;;;;;;;0.77;0.77;;;;;;;11.84;62.22;102119.88;15663196;28;20041;-84
2023/05/26 05:38:07;;;;;;;3.10;1.50;;;;;;;12.67;61.22;102197.63;15690079;28;20092;-84
2023/05/26 05:46:26;;;;;;;4.93;1.25;;;;;;;12.21;61.21;102105.47;15677917;28;20478;-85
2023/05/26 05:54:49;;;;;;;0.80;0.80;;;;;;;13.97;58.15;102212.84;15692238;28;20541;-84
2023/05/26 06:02:23;;;;;;;2.08;0.75;;;;;;;13.89;57.53;102153.59;15665698;28;20126;-85
2023/05/26 06:10:13;;;;;;;5.63;1.35;;;;;;;14.98;56.02;102249.19;15664666;28;20045;-84
2023/05/26 06:17:50;;;;;;;;;;;;;;;15.24;55.89;102247.59;15667998;28;20083;-84
2023/05/26 06:25:40;;;;;;;3.22;0.68;;;;;;;15.51;54.27;102173.53;15666472;28;19955;-84
2023/05/26 06:33:24;;;;;;;3.65;1.42;;;;;;;15.13;54.32;102230.09;15647450;28;20506;-84
2023/05/26 06:57:35;;;;;;;2.28;0.98;;;;;;;17.50;49.88;102229.84;15659289;28;20140;-85
2023/05/26 07:05:52;;;;;;;9.73;1.65;;;;;;;17.58;49.08;102254.00;15669251;28;20041;-85
2023/05/26 07:13:50;;;;;;;3.55;1.15;;;;;;;18.80;47.26;102208.09;15643530;28;20053;-84
2023/05/26 07:21:44;;;;;;;5.32;1.58;;;;;;;19.17;45.77;102231.69;15662097;28;20045;-85
2023/05/26 07:29:47;;;;;;;2.23;1.40;;;;;;;19.47;43.37;102251.53;15654670;28;20313;-84
2023/05/26 07:45:54;;;;;;;1.15;0.82;;;;;;;19.26;43.85;102195.72;15660297;28;20076;-85
2023/05/26 07:54:27;;;;;;;7.95;1.70;;;;;;;19.59;41.07;102267.91;15677728;28;20556;-86
2023/05/26 08:10:54;;;;;;;4.72;1.42;;;;;;;19.98;43.13;102271.91;15669444;28;20350;-85
2023/05/26 08:19:17;;;;;;;2.30;0.90;;;;;;;19.98;42.35;102243.84;15671656;28;20044;-86
2023/05/26 08:27:28;;;;;;;5.05;1.23;;;;;;;20.50;40.22;102209.31;15641530;28;20061;-83
2023/05/26 09:19:15;;;;;;;3.63;1.23;;;;;;;21.08;36.85;102237.50;15632767;22;20590;-73
2023/05/26 09:26:50;;;;;;;5.10;1.05;;;;;;;21.54;36.69;102247.38;15638021;28;20045;-75
2023/05/26 09:34:24;;;;;;;0.47;0.40;;;;;;;20.53;38.69;102244.31;15671642;28;20098;-72
2023/05/26 09:41:56;;;;;;;1.05;0.65;;;;;;;21.52;35.69;102241.31;15673936;28;20086;-72
2023/05/26 09:49:37;;;;;;;4.00;1.52;;;;;;;21.25;37.75;102238.34;15674132;28;20049;-74
2023/05/26 09:57:11;;;;;;;5.88;0.73;;;;;;;21.23;37.51;102243.25;15673456;28;20317;-72
2023/05/26 10:04:47;;;;;;;5.43;1.33;;;;;;;22.22;36.68;102250.94;15670131;28;20045;-72
2023/05/26 10:12:26;;;;;;;1.00;0.68;;;;;;;21.88;34.71;102233.72;15674731;28;20541;-73
2023/05/26 10:20:03;;;;;;;2.13;0.88;;;;;;;22.76;34.98;102237.44;15637892;28;20094;-76
2023/05/26 10:27:44;;;;;;;2.25;0.65;;;;;;;22.59;33.50;102228.44;15660673;28;20075;-70
2023/05/26 10:35:29;;;;;;;3.40;0.85;;;;;;;22.91;33.17;102229.41;15669934;28;20049;-74
2023/05/26 10:43:04;;;;;;;0.77;0.77;;;;;;;22.82;33.06;102228.19;15670231;28;20049;-73
2023/05/26 10:51:17;;;;;;;0.88;0.63;;;;;;;22.40;33.22;102227.94;15652410;28;20041;-72
2023/05/26 10:58:56;;;;;;;0.63;0.45;;;;;;;22.66;32.17;102221.72;15649724;28;20045;-73
2023/05/26 11:06:44;;;;;;;0.65;0.65;;;;;;;22.37;33.10;102226.53;15625771;28;20120;-72
2023/05/26 11:14:24;;;;;;;2.20;0.63;;;;;;;22.90;31.12;102230.50;15671602;28;20053;-74
2023/05/26 11:21:57;;;;;;;3.17;0.88;;;;;;;21.81;32.37;102220.19;15636906;28;20041;-73
2023/05/26 11:29:33;;;;;;;2.05;0.60;;;;;;;22.98;31.10;102221.00;15669066;28;20505;-73
2023/05/26 11:37:08;;;;;;;2.53;0.88;;;;;;;21.69;31.86;102224.94;15669069;28;20041;-72
2023/05/26 11:44:44;;;;;;;0.70;0.57;;;;;;;23.81;28.80;102218.75;15649281;28;20076;-73
2023/05/26 11:52:17;;;;;;;2.58;0.50;;;;;;;23.09;28.95;102227.41;15649765;28;20446;-74
2023/05/26 11:59:53;;;;;;;1.45;0.50;;;;;;;23.69;28.00;102212.66;15670252;28;20048;-73
2023/05/26 12:07:29;;;;;;;2.30;0.50;;;;;;;24.10;27.92;102207.41;15648942;28;20071;-74
2023/05/26 12:15:08;;;;;;;0.63;0.50;;;;;;;24.76;26.97;102212.41;15659271;28;20049;-74
2023/05/26 12:22:40;;;;;;;4.95;0.57;;;;;;;24.74;27.53;102209.13;15661101;28;20374;-73
2023/05/26 12:30:23;;;;;;;10.82;1.10;;;;;;;24.28;25.24;102192.44;15681497;28;20041;-73
2023/05/26 12:37:57;;;;;;;0.82;0.70;;;;;;;24.29;24.96;102211.38;15662699;28;20104;-73
2023/05/26 12:45:31;;;;;;;1.75;0.70;;;;;;;24.96;27.10;102209.75;15681733;28;20049;-74
2023/05/26 12:53:09;;;;;;;8.07;0.95;;;;;;;25.25;23.45;102192.78;15679735;28;20470;-74
2023/05/26 13:00:43;;;;;;;1.80;0.50;;;;;;;25.74;23.59;102187.53;15646951;28;20204;-73
2023/05/26 13:08:16;;;;;;;0.28;0.22;;;;;;;25.22;24.38;102193.31;15644492;28;20048;-73
2023/05/26 13:15:51;;;;;;;1.08;0.50;;;;;;;24.14;27.24;102195.66;15675253;28;20049;-73
2023/05/26 13:23:24;;;;;;;0.40;0.20;;;;;;;23.69;27.88;102187.97;15675084;28;20148;-73
2023/05/26 13:30:59;;;;;;;2.15;0.60;;;;;;;23.38;27.75;102173.16;15676184;28;20045;-73
2023/05/26 13:38:32;;;;;;;1.00;0.57;;;;;;;23.34;27.71;102188.47;15673310;28;20041;-73
2023/05/26 13:46:06;;;;;;;3.40;0.88;;;;;;;23.34;27.81;102172.03;15668295;28;20049;-75
2023/05/26 13:53:39;;;;;;;0.95;0.50;;;;;;;22.58;28.52;102180.28;15653045;28;20071;-75
2023/05/26 14:01:14;;;;;;;0.82;0.52;;;;;;;22.56;29.76;102185.16;15655034;28;20122;-74
2023/05/26 14:08:47;;;;;;;0.98;0.40;;;;;;;22.44;29.54;102176.28;15634125;28;20056;-73
2023/05/26 14:16:21;;;;;;;0.52;0.43;;;;;;;22.08;30.05;102151.16;15665445;28;20052;-75
2023/05/26 14:23:54;;;;;;;0.82;0.57;;;;;;;21.89;30.26;102186.97;15666627;28;20516;-74
2023/05/26 14:31:28;;;;;;;0.82;0.60;;;;;;;21.27;30.41;102189.78;15666645;28;20055;-74
2023/05/26 14:39:03;;;;;;;0.80;0.57;;;;;;;21.75;30.71;102188.41;15646010;28;20044;-74
2023/05/26 14:46:38;;;;;;;2.90;0.55;;;;;;;21.94;30.28;102190.88;15664315;28;20432;-74
2023/05/26 14:54:11;;;;;;;0.90;0.63;;;;;;;21.55;29.71;102194.38;15658716;28;20445;-74
2023/05/26 15:01:45;;;;;;;2.75;0.73;;;;;;;21.25;30.83;102188.34;15632191;28;20040;-75
2023/05/26 15:09:18;;;;;;;0.28;0.20;;;;;;;21.45;30.61;102190.63;15646951;28;20044;-75
2023/05/26 15:16:51;;;;;;;;;;;;;;;21.11;32.12;102194.13;15701117;22;20086;-52
2023/05/26 15:24:24;;;;;;;3.60;1.45;;;;;;;20.92;31.18;102183.66;15727848;28;20377;-47
2023/05/26 15:31:58;;;;;;;3.15;1.08;;;;;;;21.07;32.39;102178.47;15728830;28;20524;-49
2023/05/26 15:39:32;;;;;;;2.15;0.40;;;;;;;21.12;32.11;102178.56;15715258;28;20525;-52
2023/05/26 15:47:06;;;;;;;2.75;1.23;;;;;;;20.97;32.47;102181.03;15723483;28;20066;-51
2023/05/26 15:54:38;;;;;;;2.53;0.77;;;;;;;20.99;33.54;102178.91;15745929;28;20049;-49
2023/05/26 16:02:13;;;;;;;1.15;0.65;;;;;;;20.78;32.17;102175.75;15711418;28;20254;-51
2023/05/26 16:09:46;;;;;;;0.25;0.25;;;;;;;20.56;33.37;102178.34;15741354;28;20147;-50
2023/05/26 16:17:20;;;;;;;3.25;0.95;;;;;;;20.33;34.24;102184.66;15722213;28;20325;-54
2023/05/26 16:24:53;;;;;;;4.20;1.20;;;;;;;20.18;34.39;102178.88;15729424;28;20056;-53
2023/05/26 16:32:27;;;;;;;6.47;0.93;;;;;;;19.49;34.66;102173.16;15724682;28;20450;-51
2023/05/26 16:40:00;;;;;;;0.80;0.55;;;;;;;20.08;34.61;102165.84;15736807;28;20055;-53
2023/05/26 16:47:35;;;;;;;0.98;0.77;;;;;;;19.76;35.21;102168.09;15742021;28;20417;-51
2023/05/26 16:55:09;;;;;;;0.52;0.28;;;;;;;19.82;35.54;102169.91;15705343;28;20086;-49
2023/05/26 17:02:44;;;;;;;0.85;0.32;;;;;;;19.34;37.62;102167.31;15704913;28;20045;-53
2023/05/26 17:10:17;;;;;;;2.88;0.80;;;;;;;19.40;37.07;102168.28;15720018;28;20136;-48
2023/05/26 17:17:52;;;;;;;1.40;0.65;;;;;;;19.09;37.23;102172.94;15735587;28;20416;-50
2023/05/26 17:25:26;;;;;;;0.52;0.20;;;;;;;19.00;38.85;102171.63;15734129;28;20048;-49
2023/05/26 17:33:03;;;;;;;3.55;0.63;;;;;;;18.49;40.05;102190.03;15733085;28;20072;-50
2023/05/26 17:40:36;;;;;;;2.85;0.98;;;;;;;18.46;39.27;102203.25;15733846;28;20118;-52
2023/05/26 17:48:10;;;;;;;;;;;;;;;18.72;38.48;102202.97;15730088;28;20119;-52
2023/05/26 17:55:43;;;;;;;1.58;0.40;;;;;;;18.42;39.02;102210.19;15714589;28;19928;-46
2023/05/26 18:03:17;;;;;;;;;;;;;;;18.61;40.26;102209.16;15715248;28;20396;-51
2023/05/26 18:10:50;;;;;;;4.45;1.08;;;;;;;18.11;39.82;102214.72;15731443;28;19921;-55
2023/05/26 18:18:26;;;;;;;4.47;1.25;;;;;;;17.69;39.51;102227.19;15710977;28;20044;-51
2023/05/26 18:25:58;;;;;;;1.73;0.80;;;;;;;17.59;40.64;102227.69;15733516;28;20496;-54
2023/05/26 18:33:33;;;;;;;1.25;0.55;;;;;;;17.82;41.01;102225.22;15690091;28;20048;-51
2023/05/26 18:41:05;;;;;;;3.42;0.95;;;;;;;17.06;41.76;102236.97;15741457;28;20080;-54
2023/05/26 18:48:40;;;;;;;3.63;0.95;;;;;;;17.06;41.88;102244.28;15717867;28;20040;-50
2023/05/26 18:56:13;;;;;;;4.32;0.70;;;;;;;17.00;42.04;102253.31;15720507;28;20090;-51
2023/05/26 19:03:47;;;;;;;2.45;1.17;;;;;;;16.93;42.15;102272.31;15715676;28;20429;-51
2023/05/26 19:11:20;;;;;;;2.00;0.68;;;;;;;16.80;43.16;102275.91;15714780;28;20144;-52
2023/05/26 19:18:55;;;;;;;1.67;1.00;;;;;;;16.64;44.08;102283.63;15712156;28;20097;-54
2023/05/26 19:26:28;;;;;;;0.73;0.40;;;;;;;16.33;44.82;102288.72;15730807;28;20127;-48
2023/05/26 19:34:02;;;;;;;2.30;1.65;;;;;;;16.23;45.49;102293.75;15689190;28;20148;-50
2023/05/26 19:41:35;;;;;;;4.88;1.13;;;;;;;16.21;45.60;102300.41;15741585;28;20136;-47
2023/05/26 19:49:10;;;;;;;1.40;1.10;;;;;;;15.98;45.70;102306.22;15730740;28;20041;-49
2023/05/26 19:56:43;;;;;;;13.48;1.80;;;;;;;15.52;47.24;102306.97;15733639;28;20373;-52
2023/05/26 20:04:17;;;;;;;1.75;0.68;;;;;;;15.69;47.16;102313.72;15710457;28;20071;-51
2023/05/26 20:11:50;;;;;;;1.75;1.10;;;;;;;15.73;47.10;102312.25;15730989;28;20115;-51
2023/05/26 20:19:25;;;;;;;4.30;0.63;;;;;;;15.36;48.15;102312.75;15728187;28;20051;-50
2023/05/26 20:26:57;;;;;;;2.08;0.82;;;;;;;15.35;47.98;102319.22;15711997;28;20057;-49
2023/05/26 20:34:31;;;;;;;2.03;0.83;;;;;;;15.12;48.75;102325.78;15734984;28;20071;-51
2023/05/26 20:42:05;;;;;;;0.93;0.45;;;;;;;15.14;48.60;102336.41;15730269;28;20419;-52
2023/05/26 20:49:39;;;;;;;9.90;0.90;;;;;;;14.99;49.53;102329.25;15724147;28;20040;-52
2023/05/26 20:57:12;;;;;;;4.30;1.02;;;;;;;14.76;50.21;102345.78;15727503;28;20128;-47
2023/05/26 21:04:46;;;;;;;1.03;0.70;;;;;;;14.42;51.02;102353.81;15737439;28;20440;-47
2023/05/26 21:12:20;;;;;;;5.93;0.80;;;;;;;14.23;51.93;102345.38;15719295;28;20048;-51
2023/05/26 21:19:54;;;;;;;1.80;1.10;;;;;;;14.10;52.02;102347.13;15708728;28;20039;-50
2023/05/26 21:27:27;;;;;;;1.02;0.75;;;;;;;14.00;52.27;102355.56;15738565;22;20053;-46
2023/05/26 21:35:01;;;;;;;11.88;0.90;;;;;;;13.47;54.07;102352.28;15695370;28;20128;-48
2023/05/26 21:42:34;;;;;;;0.80;0.75;;;;;;;13.17;54.42;102355.00;15705480;28;20036;-46
2023/05/26 21:50:09;;;;;;;3.10;1.23;;;;;;;13.09;55.70;102352.41;15699837;28;20074;-45
2023/05/26 21:57:41;;;;;;;3.42;1.17;;;;;;;13.16;55.23;102360.59;15717716;28;20480;-46
2023/05/26 22:05:16;;;;;;;3.75;1.20;;;;;;;13.02;55.90;102351.50;15706895;28;20041;-48
2023/05/26 22:12:50;;;;;;;3.80;0.95;;;;;;;12.81;56.65;102354.09;15698954;28;20044;-49
2023/05/26 22:20:24;;;;;;;1.55;0.73;;;;;;;12.84;56.58;102365.34;15731162;28;20542;-47
2023/05/26 22:27:56;;;;;;;1.50;1.17;;;;;;;12.71;56.36;102373.22;15708211;28;20045;-47
2023/05/26 22:35:30;;;;;;;1.20;0.50;;;;;;;12.77;56.45;102370.59;15710617;28;20041;-46
2023/05/26 22:43:03;;;;;;;4.75;0.73;;;;;;;12.66;56.91;102368.38;15687480;28;20575;-46
2023/05/26 22:50:37;;;;;;;0.77;0.53;;;;;;;12.51;57.16;102371.06;15725608;28;20109;-47
2023/05/26 22:58:11;;;;;;;5.00;1.33;;;;;;;12.47;57.71;102383.22;15693926;28;20040;-49
2023/05/26 23:05:45;;;;;;;1.70;0.97;;;;;;;11.98;57.88;102329.81;15718783;28;20098;-47
2023/05/26 23:13:22;;;;;;;2.25;0.85;;;;;;;12.24;58.04;102385.94;15699524;28;20037;-47
2023/05/26 23:20:57;;;;;;;3.13;1.30;;;;;;;11.97;58.55;102383.78;15697893;28;20053;-45
2023/05/26 23:28:29;;;;;;;1.92;0.90;;;;;;;12.03;58.72;102393.00;15655616;28;20037;-46
2023/05/26 23:36:04;;;;;;;3.60;1.13;;;;;;;11.81;58.95;102400.03;15724655;28;20501;-47
2023/05/26 23:43:37;;;;;;;0.50;0.47;;;;;;;11.87;58.87;102405.56;15697032;28;20608;-46
2023/05/26 23:51:11;;;;;;;2.67;0.87;;;;;;;11.71;59.56;102411.00;15716006;28;20048;-49
2023/05/26 23:58:43;;;;;;;1.10;0.40;;;;;;;11.47;59.69;102406.56;15727426;28;20059;-49
